Time;durP1;ratioP1;P1;durP2;ratioP2;P2;SDS_P1;SDS_P2;PMS_P1;PMS_P2;Temp;Humidity;BMP_temperature;BMP_pressure;BME280_temperature;BME280_humidity;BME280_pressure;Samples;Min_cycle;Max_cycle;Signal;HPM_P1;HPM_P2
2022/10/12 00:09:22;;;;;;;6.55;4.10;;;18.20;69.20;;;;;;21083246;28;20345;-63
2022/10/12 00:19:24;;;;;;;6.72;3.50;;;18.10;69.80;;;;;;21080681;28;20066;-64
2022/10/12 00:29:26;;;;;;;6.78;3.45;;;18.00;70.30;;;;;;21081009;28;20404;-58
2022/10/12 00:39:28;;;;;;;8.15;3.92;;;17.90;70.60;;;;;;21079005;28;20135;-57
2022/10/12 00:49:30;;;;;;;8.38;4.68;;;17.80;71.00;;;;;;21079200;28;20056;-57
2022/10/12 00:59:38;;;;;;;6.38;3.53;;;17.80;71.20;;;;;;21060342;28;20048;-64
2022/10/12 01:09:40;;;;;;;5.63;3.38;;;17.70;71.70;;;;;;21077883;28;20062;-55
2022/10/12 01:19:58;;;;;;;11.37;3.83;;;17.50;72.20;;;;;;21077708;28;20058;-61
2022/10/12 01:30:21;;;;;;;7.72;3.97;;;17.30;72.70;;;;;;21077778;28;20048;-60
2022/10/12 01:40:38;;;;;;;5.78;3.85;;;17.30;72.50;;;;;;21076848;28;20048;-60
2022/10/12 01:50:49;;;;;;;6.93;3.95;;;17.20;73.00;;;;;;21090453;28;20393;-59
2022/10/12 02:01:02;;;;;;;8.88;4.00;;;17.20;73.00;;;;;;21092853;28;20399;-56
2022/10/12 02:11:13;;;;;;;6.95;4.05;;;17.20;73.20;;;;;;21090855;28;20408;-57
2022/10/12 02:21:21;;;;;;;7.55;3.55;;;17.10;73.20;;;;;;21090645;28;20697;-57
2022/10/12 02:31:49;;;;;;;6.55;3.15;;;17.10;73.20;;;;;;21088990;28;20048;-64
2022/10/12 02:41:56;;;;;;;7.43;3.90;;;16.90;73.50;;;;;;21088316;28;20408;-58
2022/10/12 02:52:00;;;;;;;7.97;4.03;;;17.00;73.10;;;;;;21087969;28;20472;-63
2022/10/12 03:02:09;;;;;;;6.20;3.25;;;17.10;72.70;;;;;;21086007;28;20044;-58
2022/10/12 03:12:30;;;;;;;7.05;4.18;;;17.10;72.70;;;;;;21085569;28;20047;-58
2022/10/12 03:22:52;;;;;;;7.25;3.63;;;17.10;72.60;;;;;;21085355;28;20059;-58
2022/10/12 03:33:13;;;;;;;5.85;4.15;;;17.20;72.60;;;;;;21084013;28;20048;-57
2022/10/12 03:43:22;;;;;;;7.97;4.68;;;17.20;72.60;;;;;;21083152;28;20055;-57
2022/10/12 03:53:25;;;;;;;10.33;4.77;;;17.20;72.50;;;;;;21082850;28;20052;-58
2022/10/12 04:03:28;;;;;;;7.63;4.55;;;17.20;72.10;;;;;;21082391;28;20066;-57
2022/10/12 04:13:29;;;;;;;9.93;5.30;;;17.20;72.20;;;;;;21080442;28;20125;-57
2022/10/12 04:23:31;;;;;;;11.30;5.07;;;17.20;72.20;;;;;;21081778;28;20411;-67
2022/10/12 04:33:34;;;;;;;8.32;4.88;;;17.20;72.20;;;;;;21080256;28;20206;-58
2022/10/12 04:43:37;;;;;;;8.85;5.95;;;17.00;72.50;;;;;;21079088;28;20056;-57
2022/10/12 04:53:39;;;;;;;7.80;5.40;;;16.80;73.10;;;;;;21080103;28;20503;-56
2022/10/12 05:03:41;;;;;;;9.50;4.53;;;16.70;73.40;;;;;;21060710;28;20044;-57
2022/10/12 05:13:43;;;;;;;8.35;4.40;;;16.70;73.10;;;;;;21078320;28;20055;-60
2022/10/12 05:23:50;;;;;;;6.05;4.20;;;16.60;72.70;;;;;;21092217;28;20051;-58
2022/10/12 05:33:52;;;;;;;6.13;3.97;;;16.30;72.50;;;;;;21093834;28;20044;-58
2022/10/12 05:43:54;;;;;;;6.97;3.60;;;16.00;73.10;;;;;;21092626;28;20064;-58
2022/10/12 05:53:56;;;;;;;7.13;3.97;;;15.70;73.70;;;;;;21092486;28;20480;-57
2022/10/12 06:03:58;;;;;;;6.88;3.85;;;15.60;74.10;;;;;;21091882;28;20054;-56
2022/10/12 06:13:59;;;;;;;7.13;3.97;;;15.40;74.60;;;;;;21090402;28;20059;-56
2022/10/12 06:24:02;;;;;;;8.15;4.40;;;15.40;74.60;;;;;;21089994;28;20446;-58
2022/10/12 06:34:04;;;;;;;7.90;4.75;;;15.40;74.70;;;;;;21088542;28;20051;-60
2022/10/12 06:44:07;;;;;;;9.23;5.10;;;15.40;74.90;;;;;;21089300;28;20147;-60
2022/10/12 06:54:10;;;;;;;7.77;5.10;;;15.40;74.90;;;;;;21088355;28;20097;-57
2022/10/12 07:04:11;;;;;;;8.90;5.10;;;15.60;74.50;;;;;;21087788;28;20050;-57
2022/10/12 07:14:13;;;;;;;8.70;5.38;;;15.70;74.20;;;;;;21085521;28;20082;-59
2022/10/12 07:24:15;;;;;;;10.20;4.88;;;15.90;73.80;;;;;;21085157;28;20087;-57
2022/10/12 07:34:18;;;;;;;9.45;5.50;;;16.00;73.50;;;;;;21066622;28;20052;-57
2022/10/12 07:44:20;;;;;;;8.90;5.65;;;16.10;73.10;;;;;;21083541;28;20080;-55
2022/10/12 07:54:21;;;;;;;10.05;5.97;;;16.20;72.80;;;;;;21081590;28;20048;-58
2022/10/12 08:04:23;;;;;;;11.82;6.65;;;16.40;72.60;;;;;;21082260;28;20044;-59
2022/10/12 08:14:24;;;;;;;14.32;6.88;;;16.60;72.00;;;;;;21083203;28;20472;-58
2022/10/12 08:24:26;;;;;;;11.32;7.05;;;16.90;70.90;;;;;;21081674;28;20449;-57
2022/10/12 08:34:29;;;;;;;10.60;6.55;;;17.20;70.00;;;;;;21080944;28;20051;-57
2022/10/12 08:44:50;;;;;;;9.55;5.35;;;17.60;68.20;;;;;;21080336;28;20048;-63
2022/10/12 08:54:52;;;;;;;9.88;5.32;;;17.90;67.10;;;;;;21079399;28;20052;-58
2022/10/12 09:05:02;;;;;;;8.27;5.55;;;18.00;66.40;;;;;;21079000;28;20044;-59
2022/10/12 09:15:14;;;;;;;10.70;5.20;;;18.20;65.20;;;;;;21077699;28;20048;-57
2022/10/12 09:25:18;;;;;;;9.90;4.50;;;18.50;64.80;;;;;;21077650;28;20048;-60
2022/10/12 09:35:20;;;;;;;10.07;5.00;;;18.70;63.50;;;;;;21077470;28;20048;-59
2022/10/12 09:45:22;;;;;;;6.72;4.65;;;18.90;62.30;;;;;;21076427;28;20048;-59
2022/10/12 09:55:26;;;;;;;8.43;4.22;;;19.10;61.70;;;;;;21058585;28;20052;-60
2022/10/12 10:05:33;;;;;;;8.70;4.22;;;19.20;60.70;;;;;;21063197;28;20114;-59
2022/10/12 10:15:39;;;;;;;6.45;3.60;;;19.40;60.30;;;;;;21090586;28;20535;-67
2022/10/12 10:25:41;;;;;;;9.88;4.10;;;19.60;60.00;;;;;;21091134;28;20484;-59
2022/10/12 10:36:21;;;;;;;8.23;4.32;;;19.80;58.90;;;;;;21089390;28;20140;-58
2022/10/12 10:46:29;;;;;;;10.55;4.15;;;20.00;58.40;;;;;;21083128;28;20044;-57
2022/10/12 10:56:31;;;;;;;8.32;4.43;;;20.20;58.10;;;;;;21086743;28;20048;-55
2022/10/12 11:06:45;;;;;;;11.52;4.80;;;20.50;57.60;;;;;;21067810;28;20086;-63
2022/10/12 11:17:04;;;;;;;11.43;4.18;;;20.70;56.70;;;;;;21084309;28;20048;-56
2022/10/12 11:27:17;;;;;;;5.72;3.50;;;20.90;55.70;;;;;;21083951;28;20520;-61
2022/10/12 11:37:22;;;;;;;5.38;3.38;;;21.10;54.70;;;;;;21082775;28;20346;-66
2022/10/12 11:47:36;;;;;;;4.82;3.55;;;21.30;54.20;;;;;;21063607;28;20055;-66
2022/10/12 11:57:38;;;;;;;9.15;4.45;;;21.40;53.20;;;;;;21081871;28;20454;-59
2022/10/12 12:07:45;;;;;;;7.03;3.50;;;21.50;53.30;;;;;;21080584;28;20040;-59
2022/10/12 12:18:11;;;;;;;10.10;3.92;;;21.90;51.40;;;;;;21079868;28;20438;-59
2022/10/12 12:28:23;;;;;;;6.60;2.60;;;22.10;51.00;;;;;;21078722;28;20059;-55
2022/10/12 12:38:34;;;;;;;9.00;3.28;;;22.10;49.90;;;;;;21079131;28;20403;-65
2022/10/12 12:48:39;;;;;;;4.47;2.42;;;22.20;49.60;;;;;;21078280;28;20511;-63
2022/10/12 12:59:24;;;;;;;6.63;3.40;;;22.40;47.50;;;;;;21077628;28;20100;-57
2022/10/12 13:10:06;;;;;;;5.38;3.33;;;22.60;48.10;;;;;;21077109;28;20048;-57
2022/10/12 13:20:25;;;;;;;6.90;3.75;;;22.70;48.70;;;;;;21070174;28;20532;-59
2022/10/12 13:30:57;;;;;;;6.15;3.42;;;23.00;47.80;;;;;;21078100;28;20048;-62
2022/10/12 13:41:17;;;;;;;3.43;2.07;;;23.10;46.50;;;;;;21084055;28;20051;-56
2022/10/12 13:51:25;;;;;;;11.77;7.03;;;23.20;45.40;;;;;;21092684;28;20056;-61
2022/10/12 14:01:27;;;;;;;5.85;2.83;;;23.20;45.80;;;;;;21073845;28;20048;-63
2022/10/12 14:11:29;;;;;;;4.85;2.60;;;23.30;45.60;;;;;;21090769;28;20058;-58
2022/10/12 14:21:31;;;;;;;4.10;2.50;;;23.30;45.40;;;;;;21089834;28;20054;-62
2022/10/12 14:31:54;;;;;;;5.93;3.08;;;23.40;45.10;;;;;;21089894;28;20044;-57
2022/10/12 14:42:17;;;;;;;6.68;2.90;;;23.30;44.80;;;;;;21089100;28;20059;-66
2022/10/12 14:52:38;;;;;;;6.60;2.70;;;23.40;44.50;;;;;;21087888;28;20047;-63
2022/10/12 15:02:41;;;;;;;7.40;3.40;;;23.40;44.70;;;;;;21088431;28;20063;-58
2022/10/12 15:12:43;;;;;;;4.80;2.70;;;23.50;44.10;;;;;;21087491;28;20047;-56
2022/10/12 15:22:45;;;;;;;5.60;3.15;;;23.40;44.30;;;;;;21084495;28;20131;-58
2022/10/12 15:32:47;;;;;;;6.47;3.50;;;23.50;44.30;;;;;;21084960;28;20044;-58
2022/10/12 15:42:49;;;;;;;4.93;3.03;;;23.40;43.90;;;;;;21084260;28;20052;-58
2022/10/12 15:52:52;;;;;;;10.20;4.82;;;23.40;43.70;;;;;;21083360;28;20122;-57
2022/10/12 16:02:55;;;;;;;5.95;2.70;;;23.40;44.40;;;;;;21081310;28;20493;-57
2022/10/12 16:12:57;;;;;;;4.95;3.10;;;23.30;43.70;;;;;;21063329;28;20090;-54
2022/10/12 16:23:00;;;;;;;5.53;3.50;;;23.30;44.20;;;;;;21081160;28;20086;-59
2022/10/12 16:33:02;;;;;;;4.00;2.50;;;23.40;44.70;;;;;;21079676;28;20048;-56
2022/10/12 16:43:03;;;;;;;9.18;4.25;;;23.30;45.10;;;;;;21079019;28;20048;-58
2022/10/12 16:53:05;;;;;;;7.55;4.10;;;23.30;45.80;;;;;;21078823;28;20051;-57
2022/10/12 17:03:07;;;;;;;11.52;4.75;;;23.20;45.40;;;;;;21079362;28;20059;-55
2022/10/12 17:13:09;;;;;;;5.97;3.87;;;23.10;45.80;;;;;;21080646;28;20048;-56
2022/10/12 17:23:10;;;;;;;12.05;5.97;;;23.10;46.50;;;;;;21096089;28;20087;-57
2022/10/12 17:33:11;;;;;;;7.38;4.10;;;22.90;47.10;;;;;;21095831;28;20473;-56
2022/10/12 17:43:13;;;;;;;21.77;14.30;;;22.80;47.30;;;;;;21093994;28;20546;-56
2022/10/12 17:53:15;;;;;;;9.27;5.50;;;22.70;48.10;;;;;;21093790;28;20083;-56
2022/10/12 18:03:16;;;;;;;9.43;6.32;;;22.50;48.40;;;;;;21092256;28;20048;-56
2022/10/12 18:13:18;;;;;;;12.38;5.60;;;22.40;49.40;;;;;;21092853;28;20450;-59
2022/10/12 18:23:20;;;;;;;8.83;4.53;;;22.30;50.00;;;;;;21089547;28;20067;-60
2022/10/12 18:33:23;;;;;;;9.77;5.30;;;22.30;50.20;;;;;;21087692;28;20139;-57
2022/10/12 18:43:24;;;;;;;10.63;7.55;;;22.20;50.90;;;;;;21088493;28;20048;-57
2022/10/12 18:53:26;;;;;;;16.20;8.05;;;22.10;51.30;;;;;;21087331;28;20048;-55
2022/10/12 19:03:28;;;;;;;13.13;6.20;;;22.10;51.90;;;;;;21087216;28;20481;-57
2022/10/12 19:13:30;;;;;;;11.93;7.38;;;22.00;52.00;;;;;;21067128;28;20048;-57
2022/10/12 19:23:32;;;;;;;9.80;5.75;;;21.90;52.30;;;;;;21085363;28;20472;-63
2022/10/12 19:33:34;;;;;;;12.63;8.13;;;21.80;52.60;;;;;;21065815;28;20471;-62
2022/10/12 19:43:36;;;;;;;13.30;7.75;;;21.80;52.80;;;;;;21083002;28;20087;-57
2022/10/12 19:53:39;;;;;;;15.57;9.30;;;21.70;53.10;;;;;;21065515;28;20083;-59
2022/10/12 20:03:42;;;;;;;10.38;5.65;;;21.60;53.40;;;;;;21081237;28;20055;-58
2022/10/12 20:13:44;;;;;;;8.03;4.60;;;21.40;53.70;;;;;;21063102;28;20084;-61
2022/10/12 20:23:46;;;;;;;10.90;4.70;;;21.30;53.80;;;;;;21081017;28;20052;-65
2022/10/12 20:33:51;;;;;;;10.87;5.97;;;21.20;54.20;;;;;;21080297;28;20051;-59
2022/10/12 20:43:55;;;;;;;9.90;6.03;;;21.20;54.70;;;;;;21079485;28;20055;-66
2022/10/12 20:53:59;;;;;;;8.18;6.20;;;21.10;55.00;;;;;;21078303;28;20107;-63
2022/10/12 21:04:02;;;;;;;8.50;4.70;;;21.10;55.30;;;;;;21077994;28;20400;-66
2022/10/12 21:14:03;;;;;;;7.75;4.40;;;20.70;55.80;;;;;;21078342;28;20526;-60
2022/10/12 21:24:07;;;;;;;6.32;4.18;;;20.70;55.90;;;;;;21077261;28;20051;-62
2022/10/12 21:34:09;;;;;;;5.93;4.35;;;20.70;55.80;;;;;;21076756;28;20087;-61
2022/10/12 21:44:11;;;;;;;10.20;6.97;;;20.70;56.20;;;;;;21076044;28;20051;-61
2022/10/12 21:54:13;;;;;;;9.65;5.10;;;20.50;56.50;;;;;;21076913;28;20056;-64
2022/10/12 22:04:14;;;;;;;11.77;6.25;;;20.40;56.90;;;;;;21084947;28;20416;-64
2022/10/12 22:14:17;;;;;;;7.70;5.20;;;20.40;56.90;;;;;;21091094;28;20052;-66
2022/10/12 22:24:20;;;;;;;9.82;6.28;;;20.40;57.10;;;;;;21090992;28;20453;-60
2022/10/12 22:34:21;;;;;;;10.07;6.53;;;20.20;57.50;;;;;;21089807;28;20546;-63
2022/10/12 22:44:23;;;;;;;10.88;6.13;;;20.20;57.60;;;;;;21089020;28;20586;-60
2022/10/12 22:54:25;;;;;;;9.52;6.32;;;20.10;57.70;;;;;;21087880;28;20480;-56
2022/10/12 23:04:26;;;;;;;12.13;6.50;;;19.90;58.30;;;;;;21088385;28;20147;-61
2022/10/12 23:14:28;;;;;;;13.52;5.65;;;19.70;58.50;;;;;;21086140;28;20060;-62
2022/10/12 23:24:29;;;;;;;9.85;4.90;;;19.60;58.90;;;;;;21086167;28;20168;-63
2022/10/12 23:34:31;;;;;;;8.18;4.07;;;19.40;59.00;;;;;;21084563;28;20051;-56
2022/10/12 23:44:33;;;;;;;10.07;4.93;;;19.20;59.40;;;;;;21083696;28;20492;-59
2022/10/12 23:54:35;;;;;;;5.00;3.45;;;18.90;59.70;;;;;;21083722;28;20189;-63
